sensor_id;sensor_type;location;lat;lon;timestamp;P1;durP1;ratioP1;P2;durP2;ratioP2
63350;SDS011;64988;51.058;17.040;2023-03-03T00:02:27;195.52;;;49.55;;
63350;SDS011;64988;51.058;17.040;2023-03-03T00:07:54;222.98;;;47.28;;
63350;SDS011;64988;51.058;17.040;2023-03-03T00:13:22;212.15;;;48.30;;
63350;SDS011;64988;51.058;17.040;2023-03-03T00:18:52;185.77;;;47.17;;
63350;SDS011;64988;51.058;17.040;2023-03-03T00:24:37;155.38;;;42.75;;
63350;SDS011;64988;51.058;17.040;2023-03-03T00:30:05;125.20;;;40.95;;
63350;SDS011;64988;51.058;17.040;2023-03-03T00:35:45;122.30;;;41.45;;
63350;SDS011;64988;51.058;17.040;2023-03-03T00:41:19;143.55;;;42.47;;
63350;SDS011;64988;51.058;17.040;2023-03-03T00:46:49;149.10;;;47.00;;
63350;SDS011;64988;51.058;17.040;2023-03-03T00:52:20;145.25;;;44.17;;
63350;SDS011;64988;51.058;17.040;2023-03-03T00:57:50;152.98;;;44.50;;
63350;SDS011;64988;51.058;17.040;2023-03-03T01:03:23;155.65;;;38.40;;
63350;SDS011;64988;51.058;17.040;2023-03-03T01:08:52;237.25;;;46.03;;
63350;SDS011;64988;51.058;17.040;2023-03-03T01:14:23;170.85;;;39.38;;
63350;SDS011;64988;51.058;17.040;2023-03-03T01:19:51;143.13;;;38.03;;
63350;SDS011;64988;51.058;17.040;2023-03-03T01:25:19;148.80;;;35.63;;
63350;SDS011;64988;51.058;17.040;2023-03-03T01:30:46;137.23;;;35.65;;
63350;SDS011;64988;51.058;17.040;2023-03-03T01:36:14;144.23;;;37.92;;
63350;SDS011;64988;51.058;17.040;2023-03-03T01:41:42;152.50;;;34.97;;
63350;SDS011;64988;51.058;17.040;2023-03-03T01:47:10;140.75;;;34.50;;
63350;SDS011;64988;51.058;17.040;2023-03-03T01:52:42;155.38;;;36.85;;
63350;SDS011;64988;51.058;17.040;2023-03-03T01:58:13;124.85;;;33.72;;
63350;SDS011;64988;51.058;17.040;2023-03-03T02:03:44;109.32;;;33.28;;
63350;SDS011;64988;51.058;17.040;2023-03-03T02:09:15;94.22;;;30.58;;
63350;SDS011;64988;51.058;17.040;2023-03-03T02:14:57;96.20;;;32.50;;
63350;SDS011;64988;51.058;17.040;2023-03-03T02:26:04;87.45;;;32.30;;
63350;SDS011;64988;51.058;17.040;2023-03-03T02:31:33;87.45;;;30.63;;
63350;SDS011;64988;51.058;17.040;2023-03-03T02:37:02;110.30;;;32.90;;
63350;SDS011;64988;51.058;17.040;2023-03-03T02:42:30;100.68;;;31.83;;
63350;SDS011;64988;51.058;17.040;2023-03-03T02:47:58;131.43;;;31.67;;
63350;SDS011;64988;51.058;17.040;2023-03-03T02:53:26;124.28;;;32.15;;
63350;SDS011;64988;51.058;17.040;2023-03-03T02:58:53;95.22;;;30.83;;
63350;SDS011;64988;51.058;17.040;2023-03-03T03:04:21;96.18;;;28.52;;
63350;SDS011;64988;51.058;17.040;2023-03-03T03:09:52;122.68;;;31.50;;
63350;SDS011;64988;51.058;17.040;2023-03-03T03:15:21;107.47;;;33.90;;
63350;SDS011;64988;51.058;17.040;2023-03-03T03:20:49;100.03;;;32.08;;
63350;SDS011;64988;51.058;17.040;2023-03-03T03:26:17;130.68;;;32.95;;
63350;SDS011;64988;51.058;17.040;2023-03-03T03:31:48;110.38;;;33.33;;
63350;SDS011;64988;51.058;17.040;2023-03-03T03:37:15;121.50;;;33.20;;
63350;SDS011;64988;51.058;17.040;2023-03-03T03:42:44;109.10;;;33.17;;
63350;SDS011;64988;51.058;17.040;2023-03-03T03:48:12;103.18;;;34.03;;
63350;SDS011;64988;51.058;17.040;2023-03-03T03:53:39;107.20;;;33.55;;
63350;SDS011;64988;51.058;17.040;2023-03-03T03:59:06;84.70;;;27.08;;
63350;SDS011;64988;51.058;17.040;2023-03-03T04:04:35;105.05;;;30.45;;
63350;SDS011;64988;51.058;17.040;2023-03-03T04:10:04;88.68;;;34.03;;
63350;SDS011;64988;51.058;17.040;2023-03-03T04:15:32;106.93;;;33.70;;
63350;SDS011;64988;51.058;17.040;2023-03-03T04:21:00;96.95;;;30.90;;
63350;SDS011;64988;51.058;17.040;2023-03-03T04:26:27;78.40;;;28.73;;
63350;SDS011;64988;51.058;17.040;2023-03-03T04:31:55;79.78;;;30.23;;
63350;SDS011;64988;51.058;17.040;2023-03-03T04:37:23;78.10;;;27.10;;
63350;SDS011;64988;51.058;17.040;2023-03-03T04:42:51;80.68;;;28.48;;
63350;SDS011;64988;51.058;17.040;2023-03-03T04:48:19;82.80;;;30.02;;
63350;SDS011;64988;51.058;17.040;2023-03-03T04:53:46;82.90;;;29.20;;
63350;SDS011;64988;51.058;17.040;2023-03-03T04:59:13;81.07;;;28.92;;
63350;SDS011;64988;51.058;17.040;2023-03-03T05:04:41;76.38;;;26.73;;
63350;SDS011;64988;51.058;17.040;2023-03-03T05:10:09;73.85;;;27.20;;
63350;SDS011;64988;51.058;17.040;2023-03-03T05:15:37;63.35;;;22.15;;
63350;SDS011;64988;51.058;17.040;2023-03-03T05:21:08;65.22;;;20.70;;
63350;SDS011;64988;51.058;17.040;2023-03-03T05:26:35;63.40;;;21.80;;
63350;SDS011;64988;51.058;17.040;2023-03-03T05:32:03;63.05;;;22.65;;
63350;SDS011;64988;51.058;17.040;2023-03-03T05:37:31;58.38;;;20.30;;
63350;SDS011;64988;51.058;17.040;2023-03-03T05:42:58;55.95;;;21.10;;
63350;SDS011;64988;51.058;17.040;2023-03-03T05:48:26;48.22;;;19.17;;
63350;SDS011;64988;51.058;17.040;2023-03-03T05:53:54;51.40;;;16.63;;
63350;SDS011;64988;51.058;17.040;2023-03-03T05:59:23;40.17;;;14.43;;
63350;SDS011;64988;51.058;17.040;2023-03-03T06:04:50;38.47;;;13.82;;
63350;SDS011;64988;51.058;17.040;2023-03-03T06:10:18;46.97;;;16.70;;
63350;SDS011;64988;51.058;17.040;2023-03-03T06:15:49;49.83;;;17.63;;
63350;SDS011;64988;51.058;17.040;2023-03-03T06:21:16;40.50;;;15.02;;
63350;SDS011;64988;51.058;17.040;2023-03-03T06:26:45;35.88;;;15.05;;
63350;SDS011;64988;51.058;17.040;2023-03-03T06:32:13;36.00;;;12.85;;
63350;SDS011;64988;51.058;17.040;2023-03-03T06:37:40;29.30;;;11.48;;
63350;SDS011;64988;51.058;17.040;2023-03-03T06:43:07;36.80;;;13.52;;
63350;SDS011;64988;51.058;17.040;2023-03-03T06:48:35;31.50;;;12.48;;
63350;SDS011;64988;51.058;17.040;2023-03-03T06:54:23;42.63;;;16.17;;
63350;SDS011;64988;51.058;17.040;2023-03-03T07:00:05;44.00;;;16.33;;
63350;SDS011;64988;51.058;17.040;2023-03-03T07:05:50;33.85;;;12.25;;
63350;SDS011;64988;51.058;17.040;2023-03-03T07:11:20;36.33;;;12.38;;
63350;SDS011;64988;51.058;17.040;2023-03-03T07:16:55;38.28;;;14.65;;
63350;SDS011;64988;51.058;17.040;2023-03-03T07:22:26;37.45;;;15.02;;
63350;SDS011;64988;51.058;17.040;2023-03-03T07:27:57;26.48;;;11.70;;
63350;SDS011;64988;51.058;17.040;2023-03-03T07:33:28;32.25;;;12.48;;
63350;SDS011;64988;51.058;17.040;2023-03-03T07:39:02;41.60;;;15.07;;
63350;SDS011;64988;51.058;17.040;2023-03-03T07:44:40;37.75;;;13.00;;
63350;SDS011;64988;51.058;17.040;2023-03-03T07:50:15;41.42;;;14.80;;
63350;SDS011;64988;51.058;17.040;2023-03-03T07:55:47;49.95;;;17.73;;
63350;SDS011;64988;51.058;17.040;2023-03-03T08:07:12;46.75;;;16.65;;
63350;SDS011;64988;51.058;17.040;2023-03-03T08:12:42;53.47;;;18.33;;
63350;SDS011;64988;51.058;17.040;2023-03-03T08:18:27;50.67;;;19.33;;
63350;SDS011;64988;51.058;17.040;2023-03-03T08:24:06;49.08;;;18.67;;
63350;SDS011;64988;51.058;17.040;2023-03-03T08:29:33;44.58;;;16.67;;
63350;SDS011;64988;51.058;17.040;2023-03-03T08:34:59;38.63;;;17.35;;
63350;SDS011;64988;51.058;17.040;2023-03-03T08:40:27;31.02;;;12.32;;
63350;SDS011;64988;51.058;17.040;2023-03-03T08:45:59;44.60;;;18.20;;
63350;SDS011;64988;51.058;17.040;2023-03-03T08:51:28;48.65;;;19.08;;
63350;SDS011;64988;51.058;17.040;2023-03-03T08:56:56;47.47;;;19.40;;
63350;SDS011;64988;51.058;17.040;2023-03-03T09:02:23;49.13;;;19.92;;
63350;SDS011;64988;51.058;17.040;2023-03-03T09:07:51;40.63;;;18.30;;
63350;SDS011;64988;51.058;17.040;2023-03-03T09:13:20;43.60;;;18.05;;
63350;SDS011;64988;51.058;17.040;2023-03-03T09:18:48;45.33;;;17.65;;
63350;SDS011;64988;51.058;17.040;2023-03-03T09:24:21;41.78;;;18.27;;
63350;SDS011;64988;51.058;17.040;2023-03-03T09:29:52;40.83;;;17.65;;
63350;SDS011;64988;51.058;17.040;2023-03-03T09:35:33;39.75;;;18.42;;
63350;SDS011;64988;51.058;17.040;2023-03-03T09:47:13;45.10;;;18.88;;
63350;SDS011;64988;51.058;17.040;2023-03-03T09:52:51;47.88;;;20.55;;
63350;SDS011;64988;51.058;17.040;2023-03-03T10:10:02;37.22;;;16.13;;
63350;SDS011;64988;51.058;17.040;2023-03-03T10:38:49;37.67;;;16.42;;
63350;SDS011;64988;51.058;17.040;2023-03-03T10:50:32;34.97;;;15.03;;
63350;SDS011;64988;51.058;17.040;2023-03-03T10:56:21;37.55;;;15.10;;
63350;SDS011;64988;51.058;17.040;2023-03-03T11:07:54;38.72;;;16.23;;
63350;SDS011;64988;51.058;17.040;2023-03-03T11:13:46;36.78;;;15.80;;
63350;SDS011;64988;51.058;17.040;2023-03-03T11:19:54;36.03;;;15.90;;
63350;SDS011;64988;51.058;17.040;2023-03-03T11:31:15;33.95;;;14.68;;
63350;SDS011;64988;51.058;17.040;2023-03-03T11:36:50;34.55;;;15.48;;
63350;SDS011;64988;51.058;17.040;2023-03-03T11:42:33;29.75;;;13.60;;
63350;SDS011;64988;51.058;17.040;2023-03-03T11:48:16;30.25;;;12.55;;
63350;SDS011;64988;51.058;17.040;2023-03-03T11:54:03;23.92;;;11.07;;
63350;SDS011;64988;51.058;17.040;2023-03-03T12:05:55;30.98;;;14.98;;
63350;SDS011;64988;51.058;17.040;2023-03-03T12:23:45;31.92;;;13.73;;
63350;SDS011;64988;51.058;17.040;2023-03-03T12:34:53;32.20;;;13.15;;
63350;SDS011;64988;51.058;17.040;2023-03-03T12:40:31;33.30;;;15.63;;
63350;SDS011;64988;51.058;17.040;2023-03-03T13:16:01;51.25;;;17.75;;
63350;SDS011;64988;51.058;17.040;2023-03-03T13:21:39;35.03;;;17.08;;
63350;SDS011;64988;51.058;17.040;2023-03-03T13:27:14;36.72;;;16.55;;
63350;SDS011;64988;51.058;17.040;2023-03-03T13:32:47;30.33;;;15.35;;
63350;SDS011;64988;51.058;17.040;2023-03-03T13:38:20;32.60;;;15.35;;
63350;SDS011;64988;51.058;17.040;2023-03-03T13:43:59;32.53;;;14.65;;
63350;SDS011;64988;51.058;17.040;2023-03-03T13:55:16;29.05;;;12.25;;
63350;SDS011;64988;51.058;17.040;2023-03-03T14:01:29;28.88;;;12.73;;
63350;SDS011;64988;51.058;17.040;2023-03-03T14:07:13;31.25;;;14.52;;
63350;SDS011;64988;51.058;17.040;2023-03-03T14:12:50;35.17;;;14.02;;
63350;SDS011;64988;51.058;17.040;2023-03-03T14:24:21;28.55;;;13.95;;
63350;SDS011;64988;51.058;17.040;2023-03-03T14:29:52;31.20;;;14.52;;
63350;SDS011;64988;51.058;17.040;2023-03-03T14:35:20;29.50;;;14.85;;
63350;SDS011;64988;51.058;17.040;2023-03-03T14:40:47;29.48;;;12.15;;
63350;SDS011;64988;51.058;17.040;2023-03-03T14:51:51;23.83;;;12.90;;
63350;SDS011;64988;51.058;17.040;2023-03-03T15:08:49;21.15;;;9.68;;
63350;SDS011;64988;51.058;17.040;2023-03-03T15:14:18;30.25;;;14.48;;
63350;SDS011;64988;51.058;17.040;2023-03-03T15:26:09;36.85;;;17.08;;
63350;SDS011;64988;51.058;17.040;2023-03-03T15:37:47;43.10;;;20.67;;
63350;SDS011;64988;51.058;17.040;2023-03-03T15:43:36;40.95;;;18.90;;
63350;SDS011;64988;51.058;17.040;2023-03-03T15:49:39;40.38;;;19.58;;
63350;SDS011;64988;51.058;17.040;2023-03-03T16:01:29;47.78;;;19.90;;
63350;SDS011;64988;51.058;17.040;2023-03-03T16:07:25;50.83;;;22.85;;
63350;SDS011;64988;51.058;17.040;2023-03-03T16:19:17;47.83;;;20.33;;
63350;SDS011;64988;51.058;17.040;2023-03-03T16:24:57;48.65;;;20.50;;
63350;SDS011;64988;51.058;17.040;2023-03-03T16:59:58;44.65;;;18.77;;
63350;SDS011;64988;51.058;17.040;2023-03-03T17:05:46;36.13;;;15.18;;
63350;SDS011;64988;51.058;17.040;2023-03-03T17:17:51;38.30;;;17.20;;
63350;SDS011;64988;51.058;17.040;2023-03-03T17:35:20;31.17;;;14.85;;
63350;SDS011;64988;51.058;17.040;2023-03-03T17:41:02;35.70;;;15.23;;
63350;SDS011;64988;51.058;17.040;2023-03-03T17:58:13;35.92;;;14.00;;
63350;SDS011;64988;51.058;17.040;2023-03-03T18:15:32;45.17;;;18.67;;
63350;SDS011;64988;51.058;17.040;2023-03-03T18:21:09;52.05;;;21.58;;
63350;SDS011;64988;51.058;17.040;2023-03-03T18:26:42;52.45;;;20.77;;
63350;SDS011;64988;51.058;17.040;2023-03-03T18:32:16;63.00;;;22.20;;
63350;SDS011;64988;51.058;17.040;2023-03-03T18:37:45;57.45;;;22.00;;
63350;SDS011;64988;51.058;17.040;2023-03-03T18:49:07;45.60;;;18.63;;
63350;SDS011;64988;51.058;17.040;2023-03-03T18:54:38;67.03;;;25.02;;
63350;SDS011;64988;51.058;17.040;2023-03-03T19:00:11;68.35;;;25.88;;
63350;SDS011;64988;51.058;17.040;2023-03-03T19:05:48;58.30;;;21.25;;
63350;SDS011;64988;51.058;17.040;2023-03-03T19:11:36;70.38;;;24.50;;
63350;SDS011;64988;51.058;17.040;2023-03-03T19:17:50;78.85;;;28.10;;
63350;SDS011;64988;51.058;17.040;2023-03-03T19:23:05;71.97;;;27.40;;
63350;SDS011;64988;51.058;17.040;2023-03-03T19:28:42;85.75;;;33.13;;
63350;SDS011;64988;51.058;17.040;2023-03-03T19:34:43;86.18;;;31.25;;
63350;SDS011;64988;51.058;17.040;2023-03-03T19:52:32;87.47;;;33.78;;
63350;SDS011;64988;51.058;17.040;2023-03-03T20:04:04;91.80;;;34.88;;
63350;SDS011;64988;51.058;17.040;2023-03-03T20:38:57;91.70;;;34.72;;
63350;SDS011;64988;51.058;17.040;2023-03-03T21:01:39;92.35;;;35.80;;
63350;SDS011;64988;51.058;17.040;2023-03-03T21:07:23;89.10;;;34.33;;
63350;SDS011;64988;51.058;17.040;2023-03-03T21:12:54;87.82;;;31.10;;
63350;SDS011;64988;51.058;17.040;2023-03-03T21:18:24;66.20;;;25.48;;
63350;SDS011;64988;51.058;17.040;2023-03-03T21:23:53;80.80;;;31.50;;
63350;SDS011;64988;51.058;17.040;2023-03-03T21:29:22;82.60;;;30.40;;
63350;SDS011;64988;51.058;17.040;2023-03-03T21:35:02;75.88;;;29.08;;
63350;SDS011;64988;51.058;17.040;2023-03-03T21:40:34;79.55;;;29.95;;
63350;SDS011;64988;51.058;17.040;2023-03-03T21:46:02;79.40;;;31.27;;
63350;SDS011;64988;51.058;17.040;2023-03-03T21:51:32;76.28;;;27.92;;
63350;SDS011;64988;51.058;17.040;2023-03-03T21:56:59;51.63;;;17.20;;
63350;SDS011;64988;51.058;17.040;2023-03-03T22:02:26;73.53;;;31.13;;
63350;SDS011;64988;51.058;17.040;2023-03-03T22:07:53;65.22;;;25.08;;
63350;SDS011;64988;51.058;17.040;2023-03-03T22:13:22;61.10;;;23.13;;
63350;SDS011;64988;51.058;17.040;2023-03-03T22:18:50;73.82;;;27.98;;
63350;SDS011;64988;51.058;17.040;2023-03-03T22:24:17;65.13;;;25.13;;
63350;SDS011;64988;51.058;17.040;2023-03-03T22:29:45;80.35;;;29.95;;
63350;SDS011;64988;51.058;17.040;2023-03-03T22:35:12;31.02;;;12.48;;
63350;SDS011;64988;51.058;17.040;2023-03-03T22:40:39;75.07;;;28.08;;
63350;SDS011;64988;51.058;17.040;2023-03-03T22:46:07;75.32;;;26.77;;
63350;SDS011;64988;51.058;17.040;2023-03-03T22:51:35;59.15;;;25.50;;
63350;SDS011;64988;51.058;17.040;2023-03-03T22:57:03;53.55;;;21.50;;
63350;SDS011;64988;51.058;17.040;2023-03-03T23:02:31;54.83;;;22.65;;
63350;SDS011;64988;51.058;17.040;2023-03-03T23:07:59;62.17;;;22.08;;
63350;SDS011;64988;51.058;17.040;2023-03-03T23:13:26;57.70;;;22.25;;
63350;SDS011;64988;51.058;17.040;2023-03-03T23:18:54;42.05;;;16.00;;
63350;SDS011;64988;51.058;17.040;2023-03-03T23:24:21;52.83;;;20.17;;
63350;SDS011;64988;51.058;17.040;2023-03-03T23:29:48;35.72;;;13.32;;
63350;SDS011;64988;51.058;17.040;2023-03-03T23:35:17;50.20;;;21.13;;
63350;SDS011;64988;51.058;17.040;2023-03-03T23:40:44;60.03;;;22.27;;
63350;SDS011;64988;51.058;17.040;2023-03-03T23:46:14;49.30;;;20.77;;
63350;SDS011;64988;51.058;17.040;2023-03-03T23:51:42;51.08;;;19.15;;
63350;SDS011;64988;51.058;17.040;2023-03-03T23:57:09;49.05;;;19.92;;
